Time;durP1;ratioP1;P1;durP2;ratioP2;P2;SDS_P1;SDS_P2;PMS_P1;PMS_P2;Temp;Humidity;BMP_temperature;BMP_pressure;BME280_temperature;BME280_humidity;BME280_pressure;Samples;Min_cycle;Max_cycle;Signal;HPM_P1;HPM_P2
2021/07/24 00:00:05;;;;;;;10.95;8.23;;;;;;;15.87;77.94;101499.53;693693;28;919;-66
2021/07/24 00:00:25;;;;;;;11.05;8.23;;;;;;;15.87;78.11;101503.06;693574;28;1120;-66
2021/07/24 00:00:46;;;;;;;10.40;8.20;;;;;;;15.87;77.98;101504.84;693630;28;1092;-66
2021/07/24 00:01:10;;;;;;;9.93;8.13;;;;;;;15.83;78.24;101498.00;693518;28;1451;-66
2021/07/24 00:01:30;;;;;;;10.70;8.10;;;;;;;15.83;78.25;101498.84;693490;28;1366;-66
2021/07/24 00:01:51;;;;;;;10.83;8.27;;;;;;;15.86;78.30;101504.00;693784;28;789;-65
2021/07/24 00:02:11;;;;;;;11.07;8.45;;;;;;;15.87;78.01;101495.06;693657;28;884;-65
2021/07/24 00:02:32;;;;;;;11.33;8.50;;;;;;;15.87;78.36;101499.53;693771;28;943;-65
2021/07/24 00:02:52;;;;;;;11.23;8.50;;;;;;;15.85;78.13;101496.94;693033;28;1338;-65
2021/07/24 00:03:12;;;;;;;10.17;8.20;;;;;;;15.87;78.00;101500.41;693731;28;826;-66
2021/07/24 00:03:32;;;;;;;10.03;8.07;;;;;;;15.84;78.41;101500.56;693738;28;792;-66
2021/07/24 00:03:53;;;;;;;12.07;8.32;;;;;;;15.86;78.16;101497.81;693522;28;919;-67
2021/07/24 00:04:13;;;;;;;12.30;8.90;;;;;;;15.85;78.01;101501.41;693682;28;875;-65
2021/07/24 00:04:33;;;;;;;10.73;8.30;;;;;;;15.87;78.14;101499.53;693710;28;1031;-66
2021/07/24 00:04:54;;;;;;;11.38;8.40;;;;;;;15.88;78.28;101502.09;693567;28;828;-65
2021/07/24 00:05:19;;;;;;;11.03;8.63;;;;;;;15.89;77.98;101497.63;693622;28;864;-66
2021/07/24 00:05:40;;;;;;;10.30;8.52;;;;;;;15.85;78.38;101498.75;693609;28;887;-66
2021/07/24 00:06:00;;;;;;;10.73;8.40;;;;;;;15.83;78.59;101500.66;693610;28;991;-65
2021/07/24 00:06:21;;;;;;;11.75;8.30;;;;;;;15.81;78.57;101499.84;693717;28;903;-66
2021/07/24 00:06:41;;;;;;;11.57;8.77;;;;;;;15.81;78.26;101494.53;693620;28;855;-65
2021/07/24 00:07:04;;;;;;;11.30;8.73;;;;;;;15.80;78.29;101503.47;693618;28;836;-65
2021/07/24 00:07:25;;;;;;;11.98;8.68;;;;;;;15.75;78.80;101501.03;693716;28;853;-65
2021/07/24 00:07:45;;;;;;;10.77;8.57;;;;;;;15.77;78.48;101496.50;693597;28;823;-66
2021/07/24 00:08:05;;;;;;;10.93;8.35;;;;;;;15.79;78.44;101502.59;693619;28;830;-65
2021/07/24 00:08:26;;;;;;;10.73;8.00;;;;;;;15.81;78.42;101505.19;693632;28;998;-65
2021/07/24 00:08:46;;;;;;;10.97;8.50;;;;;;;15.80;78.83;101503.47;693692;28;988;-65
2021/07/24 00:09:06;;;;;;;12.95;9.15;;;;;;;15.81;78.72;101503.38;693563;28;1002;-65
2021/07/24 00:09:29;;;;;;;13.27;8.73;;;;;;;15.81;78.66;101499.84;693600;28;912;-66
2021/07/24 00:09:52;;;;;;;11.07;8.00;;;;;;;15.79;78.85;101507.91;693600;28;923;-65
2021/07/24 00:10:12;;;;;;;11.23;8.10;;;;;;;15.80;78.72;101506.97;693661;28;843;-66
2021/07/24 00:10:33;;;;;;;12.90;8.43;;;;;;;15.82;78.62;101498.91;693557;28;1030;-65
2021/07/24 00:10:53;;;;;;;12.00;8.70;;;;;;;15.82;78.53;101504.22;693660;28;900;-66
2021/07/24 00:11:13;;;;;;;10.80;8.47;;;;;;;15.82;78.63;101499.75;693547;28;836;-65
2021/07/24 00:11:34;;;;;;;11.40;8.50;;;;;;;15.84;78.75;101502.34;693692;28;886;-65
2021/07/24 00:11:55;;;;;;;11.75;8.85;;;;;;;15.86;78.63;101503.13;693631;28;886;-66
2021/07/24 00:12:16;;;;;;;11.60;8.88;;;;;;;15.86;78.54;101498.69;693551;28;899;-65
2021/07/24 00:12:36;;;;;;;12.37;8.53;;;;;;;15.84;78.42;101499.69;693653;28;975;-63
2021/07/24 00:12:56;;;;;;;13.23;8.70;;;;;;;15.86;78.44;101503.13;693092;28;1330;-66
2021/07/24 00:13:19;;;;;;;12.13;8.50;;;;;;;15.83;78.50;101496.19;693557;28;883;-65
2021/07/24 00:13:40;;;;;;;12.23;8.65;;;;;;;15.85;78.64;101501.41;693652;28;864;-65
2021/07/24 00:14:00;;;;;;;11.70;8.97;;;;;;;15.85;78.39;101498.75;693535;28;846;-66
2021/07/24 00:14:21;;;;;;;11.73;9.00;;;;;;;15.84;78.57;101499.69;693573;28;778;-66
2021/07/24 00:14:44;;;;;;;11.33;8.70;;;;;;;15.85;78.32;101506.72;693710;28;994;-65
2021/07/24 00:15:07;;;;;;;10.90;8.57;;;;;;;15.86;78.32;101497.81;693530;28;822;-65
2021/07/24 00:15:28;;;;;;;10.88;8.52;;;;;;;15.81;78.56;101502.53;693552;28;887;-65
2021/07/24 00:15:48;;;;;;;11.47;8.70;;;;;;;15.82;78.85;101501.56;693634;28;808;-65
2021/07/24 00:16:11;;;;;;;12.63;9.00;;;;;;;15.80;78.88;101503.47;693481;28;1396;-65
2021/07/24 00:16:32;;;;;;;12.15;8.75;;;;;;;15.82;78.57;101501.56;693643;28;935;-64
2021/07/24 00:16:52;;;;;;;13.43;9.07;;;;;;;15.82;78.57;101507.75;693590;28;939;-65
2021/07/24 00:17:12;;;;;;;13.27;8.70;;;;;;;15.82;78.62;101501.56;693641;28;899;-66
2021/07/24 00:17:33;;;;;;;10.77;8.60;;;;;;;15.80;78.66;101511.44;693550;28;975;-65
2021/07/24 00:17:53;;;;;;;12.47;8.63;;;;;;;15.79;78.89;101510.56;693554;28;986;-65
2021/07/24 00:18:13;;;;;;;12.23;8.77;;;;;;;15.79;78.84;101501.72;693559;28;852;-64
2021/07/24 00:18:34;;;;;;;11.03;8.20;;;;;;;15.75;78.48;101510.81;693693;28;807;-65
2021/07/24 00:18:54;;;;;;;10.85;8.32;;;;;;;15.75;79.01;101494.88;693464;28;1912;-66
2021/07/24 00:19:14;;;;;;;10.67;8.03;;;;;;;15.75;79.20;101518.78;693618;28;899;-65
2021/07/24 00:19:35;;;;;;;11.87;8.37;;;;;;;15.76;79.12;101513.41;693508;28;892;-65
2021/07/24 00:19:55;;;;;;;12.53;8.73;;;;;;;15.75;78.98;101510.81;693599;28;788;-65
2021/07/24 00:20:15;;;;;;;11.67;8.93;;;;;;;15.73;78.97;101499.41;693225;28;1014;-65
2021/07/24 00:20:38;;;;;;;11.15;8.88;;;;;;;15.74;78.99;101514.41;693289;28;878;-65
2021/07/24 00:21:02;;;;;;;12.10;8.60;;;;;;;15.72;79.29;101509.16;693620;28;883;-64
2021/07/24 00:21:22;;;;;;;11.60;8.65;;;;;;;15.71;79.26;101509.25;693441;28;1089;-64
2021/07/24 00:21:45;;;;;;;11.23;8.63;;;;;;;15.65;79.35;101515.72;693597;28;839;-64
2021/07/24 00:22:06;;;;;;;11.68;8.68;;;;;;;15.69;79.54;101517.31;693571;28;974;-65
2021/07/24 00:22:26;;;;;;;12.33;8.93;;;;;;;15.72;79.08;101510.97;693451;28;1439;-64
2021/07/24 00:22:46;;;;;;;11.43;8.20;;;;;;;15.71;79.29;101509.25;693122;28;1340;-65
2021/07/24 00:23:08;;;;;;;11.37;8.43;;;;;;;15.73;79.20;101502.94;693706;28;887;-65
2021/07/24 00:23:29;;;;;;;11.57;8.45;;;;;;;15.76;79.01;101496.56;693514;28;879;-65
2021/07/24 00:23:49;;;;;;;12.60;8.98;;;;;;;15.74;78.94;101514.41;693640;28;885;-64
2021/07/24 00:24:12;;;;;;;12.20;8.93;;;;;;;15.74;79.09;101504.63;693556;28;1053;-65
2021/07/24 00:24:35;;;;;;;12.63;8.68;;;;;;;15.72;79.35;101505.66;693604;28;879;-65
2021/07/24 00:24:55;;;;;;;12.57;8.80;;;;;;;15.73;79.34;101507.38;693602;28;970;-65
2021/07/24 00:25:16;;;;;;;13.43;8.93;;;;;;;15.70;79.16;101507.56;693564;28;1057;-64
2021/07/24 00:25:36;;;;;;;11.93;8.82;;;;;;;15.68;79.25;101502.28;693600;28;868;-65
2021/07/24 00:25:56;;;;;;;12.13;9.00;;;;;;;15.70;79.37;101507.56;693574;28;847;-65
2021/07/24 00:26:17;;;;;;;11.33;8.73;;;;;;;15.70;79.10;101507.56;693590;28;839;-65
2021/07/24 00:26:37;;;;;;;12.03;8.80;;;;;;;15.69;79.20;101511.13;693583;28;869;-65
2021/07/24 00:26:58;;;;;;;12.07;9.07;;;;;;;15.65;79.31;101502.41;693569;28;851;-64
2021/07/24 00:27:18;;;;;;;12.50;9.17;;;;;;;15.65;79.49;101503.28;693611;28;978;-64
2021/07/24 00:27:38;;;;;;;12.50;8.57;;;;;;;15.65;79.38;101500.63;693511;28;1755;-65
2021/07/24 00:27:58;;;;;;;12.13;9.00;;;;;;;15.68;79.25;101499.63;693497;28;903;-65
2021/07/24 00:28:19;;;;;;;10.67;8.57;;;;;;;15.69;79.19;101506.69;693618;28;793;-64
2021/07/24 00:28:40;;;;;;;11.77;8.57;;;;;;;15.64;79.45;101501.56;693609;28;848;-65
2021/07/24 00:29:02;;;;;;;12.43;8.73;;;;;;;15.63;79.65;101501.66;693532;28;1086;-64
2021/07/24 00:29:25;;;;;;;12.13;8.90;;;;;;;15.61;79.81;101507.03;693643;28;828;-64
2021/07/24 00:29:46;;;;;;;12.50;8.90;;;;;;;15.59;79.71;101500.13;693446;28;971;-64
2021/07/24 00:30:07;;;;;;;12.37;8.70;;;;;;;15.57;80.16;101501.97;693323;28;1261;-64
2021/07/24 00:30:27;;;;;;;11.93;8.93;;;;;;;15.60;80.05;101504.47;693317;28;911;-64
2021/07/24 00:30:47;;;;;;;12.18;9.07;;;;;;;15.62;79.66;101498.16;693429;28;939;-64
2021/07/24 00:31:08;;;;;;;11.30;8.53;;;;;;;15.65;79.73;101495.31;693429;28;860;-65
2021/07/24 00:31:32;;;;;;;12.13;9.02;;;;;;;15.62;79.54;101498.16;693506;28;959;-65
2021/07/24 00:31:52;;;;;;;12.65;9.48;;;;;;;15.66;79.88;101499.75;693462;28;860;-64
2021/07/24 00:32:12;;;;;;;12.90;9.10;;;;;;;15.69;79.33;101500.50;693509;28;860;-65
2021/07/24 00:32:33;;;;;;;12.40;8.70;;;;;;;15.69;79.59;101500.50;693465;28;816;-64
2021/07/24 00:32:53;;;;;;;12.32;8.55;;;;;;;15.65;79.51;101499.75;693154;28;1254;-64
2021/07/24 00:33:13;;;;;;;11.40;8.50;;;;;;;15.68;79.43;101496.13;693662;28;984;-64
2021/07/24 00:33:34;;;;;;;11.90;8.97;;;;;;;15.68;79.59;101499.63;693547;28;1025;-64
2021/07/24 00:33:54;;;;;;;12.10;9.40;;;;;;;15.67;79.37;101495.28;693618;28;806;-64
2021/07/24 00:34:17;;;;;;;12.27;9.07;;;;;;;15.65;79.35;101495.31;693592;28;788;-64
2021/07/24 00:34:37;;;;;;;12.32;8.98;;;;;;;15.68;79.39;101498.78;693457;28;864;-65
2021/07/24 00:34:58;;;;;;;11.73;8.80;;;;;;;15.69;79.50;101488.09;693659;28;915;-64
2021/07/24 00:35:19;;;;;;;11.13;8.77;;;;;;;15.69;79.38;101490.75;693620;28;842;-65
2021/07/24 00:35:41;;;;;;;11.88;8.68;;;;;;;15.65;79.79;101492.66;693633;28;1014;-64
2021/07/24 00:36:02;;;;;;;11.63;8.73;;;;;;;15.65;79.52;101489.13;693572;28;1007;-64
2021/07/24 00:36:25;;;;;;;11.47;8.83;;;;;;;15.68;79.50;101488.16;693461;28;840;-64
2021/07/24 00:36:45;;;;;;;12.07;9.02;;;;;;;15.64;79.85;101480.31;693622;28;834;-64
2021/07/24 00:37:08;;;;;;;13.20;9.68;;;;;;;15.62;79.62;101484.88;692868;28;1125;-64
2021/07/24 00:37:29;;;;;;;12.57;9.57;;;;;;;15.64;79.82;101488.28;693672;28;816;-64
2021/07/24 00:37:49;;;;;;;12.00;8.93;;;;;;;15.61;79.75;101488.44;693650;28;856;-64
2021/07/24 00:38:09;;;;;;;11.73;8.87;;;;;;;15.61;79.69;101480.47;693555;28;897;-64
2021/07/24 00:38:29;;;;;;;12.60;9.77;;;;;;;15.60;79.97;101489.38;693557;28;849;-64
2021/07/24 00:38:50;;;;;;;13.27;9.50;;;;;;;15.62;79.70;101489.28;693554;28;1991;-64
2021/07/24 00:39:13;;;;;;;12.17;9.00;;;;;;;15.62;79.91;101487.53;693628;28;875;-64
2021/07/24 00:39:33;;;;;;;11.80;9.13;;;;;;;15.62;79.88;101484.88;693703;28;943;-64
2021/07/24 00:39:53;;;;;;;12.38;9.27;;;;;;;15.63;79.65;101477.75;693520;28;1160;-64
2021/07/24 00:40:16;;;;;;;11.97;8.90;;;;;;;15.64;79.52;101488.28;693598;28;848;-64
2021/07/24 00:40:43;;;;;;;11.52;8.98;;;;;;;15.63;79.82;101475.94;693588;28;892;-64
2021/07/24 00:41:13;;;;;;;11.95;9.00;;;;;;;15.64;79.81;101492.75;693602;28;867;-64
2021/07/24 00:41:43;;;;;;;13.02;9.80;;;;;;;15.65;79.74;101478.50;693633;28;1077;-64
2021/07/24 00:42:19;;;;;;;11.20;8.80;;;;;;;15.62;79.99;101484.88;693600;28;919;-64
2021/07/24 00:42:41;;;;;;;13.23;9.32;;;;;;;15.66;79.66;101480.28;693003;28;1385;-65
2021/07/24 00:43:02;;;;;;;12.02;8.77;;;;;;;15.68;79.44;101478.38;693464;28;1033;-65
2021/07/24 00:43:30;;;;;;;11.82;9.10;;;;;;;15.67;79.59;101476.69;693584;28;947;-65
2021/07/24 00:43:52;;;;;;;12.32;9.23;;;;;;;15.66;79.65;101480.28;693526;28;903;-65
2021/07/24 00:44:15;;;;;;;12.25;9.18;;;;;;;15.65;79.74;101470.53;693578;28;975;-66
2021/07/24 00:44:36;;;;;;;13.43;8.90;;;;;;;15.64;79.68;101477.66;693398;28;837;-65
2021/07/24 00:45:02;;;;;;;12.57;9.10;;;;;;;15.65;79.50;101474.03;693517;28;1198;-65
2021/07/24 00:45:24;;;;;;;12.30;8.98;;;;;;;15.64;79.85;101480.31;693590;28;1220;-65
2021/07/24 00:45:46;;;;;;;12.55;9.40;;;;;;;15.66;79.46;101491.75;693578;28;837;-65
2021/07/24 00:46:07;;;;;;;12.77;9.43;;;;;;;15.64;79.52;101477.66;693572;28;992;-66
2021/07/24 00:46:31;;;;;;;12.80;9.38;;;;;;;15.66;79.58;101485.59;693488;28;832;-65
2021/07/24 00:46:51;;;;;;;11.85;9.13;;;;;;;15.64;79.85;101477.66;693491;28;907;-65
2021/07/24 00:47:20;;;;;;;13.20;9.07;;;;;;;15.63;79.74;101473.28;693666;28;808;-65
2021/07/24 00:47:44;;;;;;;11.68;9.35;;;;;;;15.65;79.54;101471.38;693549;28;1041;-65
2021/07/24 00:48:05;;;;;;;12.23;9.00;;;;;;;15.64;79.74;101468.84;693608;28;844;-65
2021/07/24 00:48:25;;;;;;;11.15;8.73;;;;;;;15.59;79.75;101479.72;693370;28;880;-65
2021/07/24 00:48:50;;;;;;;11.02;8.57;;;;;;;15.58;79.85;101464.69;693531;28;826;-65
2021/07/24 00:49:15;;;;;;;12.63;8.93;;;;;;;15.60;79.74;101469.94;693476;28;967;-65
2021/07/24 00:49:35;;;;;;;12.40;9.27;;;;;;;15.59;79.84;101463.78;693619;28;885;-65
2021/07/24 00:49:57;;;;;;;13.13;9.40;;;;;;;15.63;79.99;101465.31;693693;28;837;-66
2021/07/24 00:50:17;;;;;;;13.85;9.55;;;;;;;15.60;80.03;101462.81;693354;28;927;-65
2021/07/24 00:50:39;;;;;;;12.88;9.48;;;;;;;15.55;80.12;101462.19;693534;28;871;-65
2021/07/24 00:50:59;;;;;;;13.43;9.75;;;;;;;15.48;80.23;101450.16;693543;28;887;-66
2021/07/24 00:51:29;;;;;;;13.13;9.73;;;;;;;15.44;80.68;101467.22;693621;28;883;-65
2021/07/24 00:51:53;;;;;;;13.25;9.50;;;;;;;15.45;80.44;101463.63;693581;28;915;-65
2021/07/24 00:52:14;;;;;;;13.05;9.55;;;;;;;15.48;80.32;101463.44;693518;28;865;-65
2021/07/24 00:52:34;;;;;;;12.20;9.43;;;;;;;15.51;80.32;101455.31;693486;28;1281;-65
2021/07/24 00:53:10;;;;;;;14.10;9.57;;;;;;;15.52;80.18;101465.03;692830;28;1331;-65
2021/07/24 00:53:35;;;;;;;11.48;9.18;;;;;;;15.57;80.07;101459.47;693535;28;861;-65
2021/07/24 00:53:56;;;;;;;12.55;9.50;;;;;;;15.55;80.11;101459.53;693524;28;884;-65
2021/07/24 00:54:16;;;;;;;13.60;9.35;;;;;;;15.53;80.06;101464.09;693562;28;860;-65
2021/07/24 00:54:40;;;;;;;12.33;9.23;;;;;;;15.51;80.09;101460.63;693537;28;1031;-65
2021/07/24 00:55:00;;;;;;;15.30;9.98;;;;;;;15.51;80.27;101454.47;693441;28;979;-65
2021/07/24 00:55:20;;;;;;;14.27;9.50;;;;;;;15.52;80.36;101467.69;693546;28;863;-65
2021/07/24 00:55:41;;;;;;;13.13;9.20;;;;;;;15.52;80.30;101464.16;693672;28;1044;-65
2021/07/24 00:56:03;;;;;;;13.15;9.13;;;;;;;15.54;80.16;101454.31;693565;28;880;-65
2021/07/24 00:56:25;;;;;;;12.50;9.38;;;;;;;15.55;80.24;101456.03;693467;28;983;-65
2021/07/24 00:56:50;;;;;;;12.95;9.30;;;;;;;15.53;80.13;101456.13;693470;28;816;-65
2021/07/24 00:57:13;;;;;;;13.18;9.55;;;;;;;15.50;80.51;101453.63;693554;28;922;-65
2021/07/24 00:57:35;;;;;;;13.68;9.48;;;;;;;15.53;80.27;101453.47;693451;28;915;-65
2021/07/24 00:57:55;;;;;;;12.27;9.50;;;;;;;15.52;80.22;101457.06;693490;28;1137;-65
2021/07/24 00:58:28;;;;;;;12.10;9.13;;;;;;;15.54;80.27;101452.50;693529;28;1010;-65
2021/07/24 00:58:49;;;;;;;12.68;9.45;;;;;;;15.55;80.09;101456.88;693501;28;1912;-65
2021/07/24 00:59:12;;;;;;;12.10;9.40;;;;;;;15.52;80.35;101457.06;693485;28;826;-64
2021/07/24 00:59:36;;;;;;;13.45;9.95;;;;;;;15.48;80.47;101450.16;693519;28;911;-65
2021/07/24 00:59:59;;;;;;;12.80;9.50;;;;;;;15.49;80.25;101451.91;693565;28;832;-65
2021/07/24 01:00:19;;;;;;;12.98;9.75;;;;;;;15.49;80.46;101459.88;693503;28;1006;-64
2021/07/24 01:00:39;;;;;;;12.07;9.10;;;;;;;15.49;80.47;101449.25;693470;28;943;-64
2021/07/24 01:01:02;;;;;;;12.23;9.30;;;;;;;15.44;80.58;101460.09;693673;28;891;-65
2021/07/24 01:01:25;;;;;;;11.77;9.40;;;;;;;15.43;80.61;101458.41;693394;28;963;-65
2021/07/24 01:01:46;;;;;;;13.40;9.75;;;;;;;15.45;80.58;101458.31;693607;28;899;-65
2021/07/24 01:02:07;;;;;;;12.88;9.40;;;;;;;15.42;80.94;101461.16;693531;28;884;-64
2021/07/24 01:02:27;;;;;;;12.40;9.23;;;;;;;15.41;80.70;101459.41;693528;28;998;-65
2021/07/24 01:02:47;;;;;;;12.50;9.67;;;;;;;15.42;80.93;101456.69;693004;28;1288;-65
2021/07/24 01:03:07;;;;;;;12.07;9.53;;;;;;;15.41;80.81;101459.41;693545;28;939;-65
2021/07/24 01:03:28;;;;;;;13.13;9.23;;;;;;;15.38;81.09;101456.91;693518;28;879;-65
2021/07/24 01:03:48;;;;;;;13.55;9.70;;;;;;;15.37;80.83;101457.84;693685;28;964;-65
2021/07/24 01:04:09;;;;;;;12.43;9.77;;;;;;;15.39;80.90;101462.16;693407;28;1051;-64
2021/07/24 01:04:30;;;;;;;12.50;9.45;;;;;;;15.39;80.83;101456.84;693536;28;848;-64
2021/07/24 01:04:53;;;;;;;12.10;9.53;;;;;;;15.42;80.89;101455.81;693572;28;975;-65
2021/07/24 01:05:13;;;;;;;13.65;10.07;;;;;;;15.45;80.80;101460.97;693622;28;816;-64
2021/07/24 01:05:35;;;;;;;13.35;9.98;;;;;;;15.46;80.82;101444.09;693511;28;1045;-64
2021/07/24 01:05:57;;;;;;;12.48;9.52;;;;;;;15.49;80.94;101446.59;693576;28;963;-65
2021/07/24 01:06:17;;;;;;;12.10;9.45;;;;;;;15.48;80.78;101450.16;693682;28;907;-65
2021/07/24 01:06:39;;;;;;;12.35;9.50;;;;;;;15.45;80.76;101445.06;693749;28;864;-65
2021/07/24 01:07:03;;;;;;;12.60;9.70;;;;;;;15.45;80.89;101453.03;693678;28;896;-65
2021/07/24 01:07:26;;;;;;;11.93;9.38;;;;;;;15.47;80.78;101443.16;693640;28;1066;-65
2021/07/24 01:07:49;;;;;;;12.63;9.40;;;;;;;15.49;80.97;101445.75;693634;28;880;-65
2021/07/24 01:08:09;;;;;;;12.65;9.77;;;;;;;15.47;80.88;101440.50;693314;28;899;-65
2021/07/24 01:08:32;;;;;;;11.40;9.20;;;;;;;15.48;80.76;101434.22;693547;28;931;-65
2021/07/24 01:08:53;;;;;;;12.48;9.10;;;;;;;15.49;80.56;101441.28;693327;28;852;-65
2021/07/24 01:09:13;;;;;;;12.63;9.70;;;;;;;15.48;80.80;101444.84;693450;28;1050;-65
2021/07/24 01:09:36;;;;;;;13.47;9.67;;;;;;;15.47;80.59;101443.16;693198;28;1843;-64
2021/07/24 01:09:57;;;;;;;14.32;10.02;;;;;;;15.48;80.73;101434.22;693519;28;1493;-64
2021/07/24 01:10:18;;;;;;;12.90;9.88;;;;;;;15.49;80.81;101437.78;693829;28;864;-64
2021/07/24 01:10:38;;;;;;;13.25;9.85;;;;;;;15.49;80.89;101435.13;693663;28;829;-65
2021/07/24 01:11:03;;;;;;;13.50;9.83;;;;;;;15.48;80.94;101436.03;693775;28;971;-65
2021/07/24 01:11:24;;;;;;;13.38;9.73;;;;;;;15.44;81.05;101432.69;693751;28;943;-65
2021/07/24 01:11:44;;;;;;;13.13;9.75;;;;;;;15.46;80.96;101433.47;693979;28;891;-65
2021/07/24 01:12:05;;;;;;;12.97;9.67;;;;;;;15.48;80.85;101433.38;693870;28;1020;-65
2021/07/24 01:12:25;;;;;;;12.13;9.57;;;;;;;15.46;81.05;101436.13;694025;28;955;-65
2021/07/24 01:12:46;;;;;;;11.75;9.57;;;;;;;15.49;80.78;101435.97;693593;28;1377;-65
2021/07/24 01:13:06;;;;;;;11.67;9.57;;;;;;;15.52;80.91;101438.47;694135;28;1002;-65
2021/07/24 01:13:28;;;;;;;12.82;9.82;;;;;;;15.54;80.69;101436.56;693848;28;899;-65
2021/07/24 01:13:49;;;;;;;13.38;9.50;;;;;;;15.54;80.80;101433.91;694072;28;931;-65
2021/07/24 01:14:11;;;;;;;13.40;9.80;;;;;;;15.54;81.04;101441.88;693883;28;1081;-65
2021/07/24 01:14:32;;;;;;;13.52;9.75;;;;;;;15.53;80.54;101442.84;693716;28;1317;-65
2021/07/24 01:14:52;;;;;;;14.53;9.93;;;;;;;15.52;80.81;101438.47;693930;28;802;-65
2021/07/24 01:15:12;;;;;;;13.70;10.05;;;;;;;15.53;80.79;101437.53;694022;28;928;-65
2021/07/24 01:15:33;;;;;;;13.13;9.73;;;;;;;15.53;80.59;101442.84;694185;28;832;-65
2021/07/24 01:15:53;;;;;;;13.67;10.00;;;;;;;15.54;80.60;101438.38;694173;28;969;-65
2021/07/24 01:16:13;;;;;;;13.32;9.95;;;;;;;15.52;80.66;101434.94;693924;28;848;-65
2021/07/24 01:16:34;;;;;;;13.37;10.00;;;;;;;15.48;80.81;101428.91;694098;28;816;-65
2021/07/24 01:16:54;;;;;;;13.67;9.80;;;;;;;15.48;81.23;101433.38;693545;28;1002;-65
2021/07/24 01:17:14;;;;;;;14.20;9.73;;;;;;;15.48;80.89;101430.72;693958;28;979;-65
2021/07/24 01:17:34;;;;;;;13.13;9.90;;;;;;;15.46;81.19;101438.78;693782;28;913;-65
2021/07/24 01:17:55;;;;;;;13.23;9.87;;;;;;;15.49;81.16;101429.81;693576;28;842;-64
2021/07/24 01:18:15;;;;;;;12.27;9.55;;;;;;;15.48;81.02;101436.03;693854;28;947;-65
2021/07/24 01:18:36;;;;;;;13.07;10.25;;;;;;;15.45;81.11;101429.13;693999;28;1073;-65
2021/07/24 01:18:59;;;;;;;14.17;10.43;;;;;;;15.44;81.53;101428.22;693820;28;1907;-65
2021/07/24 01:19:20;;;;;;;14.00;10.48;;;;;;;15.45;81.17;101434.41;693882;28;1132;-65
2021/07/24 01:19:40;;;;;;;13.53;10.93;;;;;;;15.45;81.34;101434.41;694040;28;864;-65
2021/07/24 01:20:05;;;;;;;14.27;10.70;;;;;;;15.44;81.54;101435.34;693957;28;820;-64
2021/07/24 01:20:25;;;;;;;14.68;10.30;;;;;;;15.45;81.44;101437.06;693619;28;1148;-65
2021/07/24 01:20:46;;;;;;;14.25;10.20;;;;;;;15.47;81.28;101439.63;693470;28;887;-65
2021/07/24 01:21:27;;;;;;;14.25;10.38;;;;;;;15.46;81.27;101436.13;693545;28;1022;-65
2021/07/24 01:21:48;;;;;;;13.77;10.10;;;;;;;15.43;81.44;101437.16;693359;28;1818;-65
2021/07/24 01:22:08;;;;;;;14.00;10.30;;;;;;;15.44;81.48;101438.00;693622;28;903;-65
2021/07/24 01:22:28;;;;;;;15.10;10.18;;;;;;;15.45;81.34;101431.78;693299;28;1334;-65
2021/07/24 01:22:49;;;;;;;13.83;10.30;;;;;;;15.47;81.47;101437.84;693066;28;850;-66
2021/07/24 01:23:10;;;;;;;13.03;10.47;;;;;;;15.49;81.36;101435.97;693582;28;950;-65
2021/07/24 01:23:31;;;;;;;12.50;9.48;;;;;;;15.50;81.20;101437.69;693419;28;1270;-65
2021/07/24 01:23:51;;;;;;;11.85;9.55;;;;;;;15.49;81.15;101435.97;693563;28;1015;-66
2021/07/24 01:24:11;;;;;;;12.13;9.77;;;;;;;15.46;81.62;101430.81;693586;28;773;-65
2021/07/24 01:24:38;;;;;;;13.13;10.00;;;;;;;15.44;81.54;101430.03;693440;28;880;-65
2021/07/24 01:25:01;;;;;;;14.05;10.15;;;;;;;15.42;81.88;101432.78;693610;28;860;-65
2021/07/24 01:25:21;;;;;;;14.85;10.45;;;;;;;15.41;81.79;101433.69;693441;28;856;-65
2021/07/24 01:25:46;;;;;;;12.60;9.80;;;;;;;15.41;81.86;101433.69;693506;28;1030;-65
2021/07/24 01:26:06;;;;;;;13.45;10.35;;;;;;;15.43;81.53;101430.97;693520;28;963;-65
2021/07/24 01:26:30;;;;;;;13.27;10.05;;;;;;;15.43;81.57;101429.16;693505;28;887;-65
2021/07/24 01:26:50;;;;;;;12.93;10.32;;;;;;;15.41;81.92;101432.84;693846;28;910;-65
2021/07/24 01:27:10;;;;;;;13.30;9.90;;;;;;;15.42;81.88;101429.28;693839;28;808;-64
2021/07/24 01:27:42;;;;;;;14.55;9.93;;;;;;;15.42;81.58;101431.94;693958;28;899;-64
2021/07/24 01:28:03;;;;;;;13.65;10.77;;;;;;;15.44;81.84;101430.88;693856;28;852;-66
2021/07/24 01:28:31;;;;;;;14.47;10.73;;;;;;;15.42;81.68;101429.28;693763;28;1292;-64
2021/07/24 01:28:52;;;;;;;13.65;10.27;;;;;;;15.40;81.86;101433.78;693891;28;907;-65
2021/07/24 01:29:17;;;;;;;13.23;10.07;;;;;;;15.38;81.76;101427.69;693901;28;808;-64
2021/07/24 01:29:37;;;;;;;14.35;10.57;;;;;;;15.39;82.22;101442.72;693853;28;869;-65
2021/07/24 01:29:58;;;;;;;13.43;10.53;;;;;;;15.39;82.16;101426.78;693941;28;884;-65
2021/07/24 01:30:18;;;;;;;13.80;10.40;;;;;;;15.40;82.13;101431.13;693857;28;861;-65
2021/07/24 01:30:41;;;;;;;12.60;10.50;;;;;;;15.38;82.29;101425.91;693761;28;854;-65
2021/07/24 01:31:04;;;;;;;12.75;10.50;;;;;;;15.39;81.87;101429.44;693724;28;1046;-65
2021/07/24 01:31:25;;;;;;;13.27;10.90;;;;;;;15.41;82.20;101425.72;693877;28;979;-65
2021/07/24 01:31:45;;;;;;;13.60;10.88;;;;;;;15.43;82.02;101425.66;693766;28;1069;-65
2021/07/24 01:32:06;;;;;;;14.70;10.80;;;;;;;15.39;81.90;101429.44;694130;28;885;-65
2021/07/24 01:32:26;;;;;;;14.68;10.65;;;;;;;15.39;82.27;101427.63;693988;28;1249;-64
2021/07/24 01:32:47;;;;;;;13.50;11.10;;;;;;;15.40;82.12;101431.13;693370;28;986;-65
2021/07/24 01:33:10;;;;;;;13.45;11.00;;;;;;;15.41;81.85;101422.22;694224;28;939;-65
2021/07/24 01:33:32;;;;;;;14.18;10.63;;;;;;;15.42;82.01;101423.97;694096;28;890;-65
2021/07/24 01:33:52;;;;;;;14.27;10.50;;;;;;;15.43;81.77;101415.91;694245;28;832;-64
2021/07/24 01:34:13;;;;;;;14.45;10.60;;;;;;;15.44;82.06;101422.06;694217;28;879;-65
2021/07/24 01:34:36;;;;;;;14.27;10.40;;;;;;;15.45;81.87;101418.47;693872;28;1025;-64
2021/07/24 01:34:56;;;;;;;14.38;10.60;;;;;;;15.46;81.72;101424.66;694005;28;883;-65
2021/07/24 01:35:19;;;;;;;13.65;10.80;;;;;;;15.44;81.89;101419.41;693874;28;1037;-65
2021/07/24 01:35:50;;;;;;;13.90;10.50;;;;;;;15.41;82.06;101414.25;693833;28;935;-65
2021/07/24 01:36:11;;;;;;;14.20;10.57;;;;;;;15.39;82.29;101413.50;693909;28;942;-65
2021/07/24 01:36:31;;;;;;;14.68;10.85;;;;;;;15.41;82.26;101416.91;693934;28;907;-65
2021/07/24 01:36:52;;;;;;;14.87;11.27;;;;;;;15.40;82.17;101420.50;693921;28;872;-64
2021/07/24 01:37:12;;;;;;;14.97;11.00;;;;;;;15.40;82.04;101409.88;694255;28;1012;-64
2021/07/24 01:37:33;;;;;;;14.90;11.10;;;;;;;15.40;82.00;101416.06;694122;28;788;-64
2021/07/24 01:37:53;;;;;;;14.03;11.00;;;;;;;15.43;82.00;101415.91;694249;28;1049;-64
2021/07/24 01:38:14;;;;;;;14.27;10.82;;;;;;;15.44;82.16;101416.75;694181;28;1086;-65
2021/07/24 01:38:39;;;;;;;14.13;10.90;;;;;;;15.44;81.81;101419.41;694246;28;1014;-64
2021/07/24 01:39:00;;;;;;;15.20;11.32;;;;;;;15.43;82.19;101412.38;693996;28;1902;-66
2021/07/24 01:39:22;;;;;;;15.13;11.13;;;;;;;15.40;82.28;101412.53;694129;28;1006;-65
2021/07/24 01:39:43;;;;;;;15.70;11.27;;;;;;;15.40;81.97;101416.06;694276;28;1639;-67
2021/07/24 01:40:04;;;;;;;15.23;11.07;;;;;;;15.42;82.31;101410.69;694089;28;1018;-65
2021/07/24 01:40:27;;;;;;;15.05;10.77;;;;;;;15.43;82.22;101410.56;694187;28;856;-65
2021/07/24 01:40:51;;;;;;;14.93;11.15;;;;;;;15.41;81.93;101415.09;693940;28;1015;-65
2021/07/24 01:41:15;;;;;;;13.68;10.55;;;;;;;15.42;81.88;101408.03;694067;28;849;-65
2021/07/24 01:41:35;;;;;;;14.25;10.57;;;;;;;15.44;82.03;101406.13;694632;28;899;-64
2021/07/24 01:41:56;;;;;;;14.98;11.40;;;;;;;15.46;82.17;101400.75;693884;28;907;-65
2021/07/24 01:42:18;;;;;;;13.27;10.83;;;;;;;15.47;82.03;101405.09;694085;28;787;-64
2021/07/24 01:42:38;;;;;;;14.35;10.93;;;;;;;15.47;81.68;101403.31;693755;28;1268;-64